createdAt,value
2023-02-14T00:01:23.254Z,49.17
2023-02-14T00:03:51.084Z,47.15
2023-02-14T00:06:18.922Z,50.13
2023-02-14T00:08:46.821Z,47.30
2023-02-14T00:11:14.969Z,48.05
2023-02-14T00:14:03.961Z,50.92
2023-02-14T00:16:32.782Z,49.10
2023-02-14T00:19:06.603Z,48.10
2023-02-14T00:21:36.605Z,54.88
2023-02-14T00:24:04.926Z,48.53
2023-02-14T00:26:32.807Z,53.40
2023-02-14T00:29:00.606Z,47.92
2023-02-14T00:31:28.516Z,47.83
2023-02-14T00:33:58.337Z,49.72
2023-02-14T00:36:26.745Z,51.33
2023-02-14T00:38:54.588Z,48.20
2023-02-14T00:41:22.628Z,46.33
2023-02-14T00:43:52.974Z,49.70
2023-02-14T00:46:23.023Z,47.92
2023-02-14T00:48:51.592Z,49.72
2023-02-14T00:51:21.399Z,50.00
2023-02-14T00:53:52.132Z,46.83
2023-02-14T00:56:21.577Z,47.07
2023-02-14T00:58:49.507Z,49.72
2023-02-14T01:01:20.097Z,48.65
2023-02-14T01:03:48.516Z,48.85
2023-02-14T01:06:17.032Z,44.38
2023-02-14T01:08:46.266Z,48.93
2023-02-14T01:11:16.371Z,47.80
2023-02-14T01:13:45.921Z,51.45
2023-02-14T01:16:16.722Z,46.20
2023-02-14T01:18:45.744Z,48.33
2023-02-14T01:21:19.686Z,46.63
2023-02-14T01:23:50.971Z,49.45
2023-02-14T01:26:20.548Z,46.30
2023-02-14T01:28:48.467Z,46.97
2023-02-14T01:31:18.185Z,46.63
2023-02-14T01:33:47.553Z,47.20
2023-02-14T01:36:21.127Z,44.95
2023-02-14T01:38:53.602Z,46.45
2023-02-14T01:41:21.853Z,44.65
2023-02-14T01:43:59.065Z,45.38
2023-02-14T01:46:28.179Z,45.20
2023-02-14T01:49:00.650Z,46.42
2023-02-14T01:51:29.820Z,42.50
2023-02-14T01:54:00.417Z,42.17
2023-02-14T01:56:35.327Z,44.83
2023-02-14T01:59:05.489Z,45.23
2023-02-14T02:01:33.374Z,43.60
2023-02-14T02:04:08.293Z,44.53
2023-02-14T02:06:39.248Z,47.90
2023-02-14T02:09:16.343Z,44.90
2023-02-14T02:11:44.504Z,39.87
2023-02-14T02:14:15.812Z,45.85
2023-02-14T02:17:16.465Z,45.10
2023-02-14T02:20:29.918Z,41.78
2023-02-14T02:23:18.852Z,40.75
2023-02-14T02:26:31.729Z,44.77
2023-02-14T02:29:31.813Z,36.00
2023-02-14T02:32:39.033Z,41.75
2023-02-14T02:35:35.647Z,40.88
2023-02-14T02:38:17.548Z,41.17
2023-02-14T02:40:53.513Z,41.13
2023-02-14T02:43:36.919Z,38.90
2023-02-14T02:46:27.431Z,41.97
2023-02-14T02:49:00.814Z,40.03
2023-02-14T02:51:54.254Z,41.00
2023-02-14T02:54:32.392Z,42.87
2023-02-14T02:57:02.178Z,43.88
2023-02-14T02:59:32.988Z,45.30
2023-02-14T03:02:06.664Z,39.50
2023-02-14T03:05:03.337Z,38.40
2023-02-14T03:07:39.367Z,37.13
2023-02-14T03:10:14.080Z,42.17
2023-02-14T03:13:20.212Z,37.50
2023-02-14T03:15:59.462Z,37.25
2023-02-14T03:18:40.388Z,39.22
2023-02-14T03:21:18.657Z,37.50
2023-02-14T03:23:54.154Z,40.03
2023-02-14T03:26:27.645Z,39.10
2023-02-14T03:29:03.843Z,39.92
2023-02-14T03:31:34.956Z,42.63
2023-02-14T03:34:12.198Z,41.33
2023-02-14T03:36:43.640Z,39.75
2023-02-14T03:39:19.265Z,38.78
2023-02-14T03:41:52.767Z,36.80
2023-02-14T03:44:25.675Z,43.75
2023-02-14T03:46:59.033Z,40.13
2023-02-14T03:49:32.039Z,37.15
2023-02-14T03:52:02.097Z,42.75
2023-02-14T03:54:33.558Z,44.50
2023-02-14T03:57:08.884Z,39.83
2023-02-14T03:59:36.752Z,39.23
2023-02-14T04:02:08.129Z,40.83
2023-02-14T04:04:47.131Z,40.97
2023-02-14T04:07:17.441Z,38.50
2023-02-14T04:09:47.194Z,42.38
2023-02-14T04:12:18.176Z,38.03
2023-02-14T04:14:47.569Z,38.83
2023-02-14T04:17:32.926Z,38.63
2023-02-14T04:20:00.801Z,35.03
2023-02-14T04:22:28.666Z,34.83
2023-02-14T04:24:57.812Z,39.63
2023-02-14T04:27:25.600Z,39.70
2023-02-14T04:29:53.559Z,41.55
2023-02-14T04:32:23.442Z,48.97
2023-02-14T04:34:51.485Z,31.83
2023-02-14T04:37:20.837Z,30.47
2023-02-14T04:39:48.694Z,40.97
2023-02-14T04:42:17.835Z,34.40
2023-02-14T04:44:45.632Z,29.48
2023-02-14T04:47:13.435Z,32.42
2023-02-14T04:49:41.283Z,29.37
2023-02-14T04:52:09.259Z,40.20
2023-02-14T04:54:37.553Z,31.08
2023-02-14T04:57:05.482Z,32.55
2023-02-14T04:59:34.663Z,28.63
2023-02-14T05:02:02.476Z,28.10
2023-02-14T05:04:30.281Z,26.60
2023-02-14T05:06:58.056Z,27.73
2023-02-14T05:09:25.987Z,31.20
2023-02-14T05:11:53.843Z,33.67
2023-02-14T05:14:21.788Z,28.90
2023-02-14T05:16:50.889Z,29.88
2023-02-14T05:19:18.812Z,32.00
2023-02-14T05:21:47.112Z,30.65
2023-02-14T05:24:15.075Z,34.33
2023-02-14T05:26:42.921Z,29.97
2023-02-14T05:29:10.768Z,31.50
2023-02-14T05:31:38.695Z,30.60
2023-02-14T05:34:08.120Z,30.80
2023-02-14T05:36:35.928Z,32.72
2023-02-14T05:39:04.027Z,24.17
2023-02-14T05:41:31.803Z,26.80
2023-02-14T05:43:59.667Z,28.50
2023-02-14T05:46:27.484Z,25.92
2023-02-14T05:48:55.381Z,21.42
2023-02-14T05:51:24.537Z,30.43
2023-02-14T05:53:52.430Z,25.25
2023-02-14T05:56:20.190Z,21.85
2023-02-14T05:58:47.979Z,22.67
2023-02-14T06:01:15.795Z,22.77
2023-02-14T06:03:43.512Z,24.27
2023-02-14T06:06:11.299Z,23.80
2023-02-14T06:08:40.409Z,20.75
2023-02-14T06:11:08.210Z,21.35
2023-02-14T06:13:36.017Z,21.02
2023-02-14T06:16:04.692Z,21.40
2023-02-14T06:18:32.589Z,21.77
2023-02-14T06:21:00.694Z,29.92
2023-02-14T06:23:28.768Z,37.75
2023-02-14T06:25:57.924Z,22.13
2023-02-14T06:28:25.780Z,24.63
2023-02-14T06:30:53.688Z,25.17
2023-02-14T06:33:21.549Z,21.83
2023-02-14T06:35:49.318Z,26.63
2023-02-14T06:38:17.181Z,19.45
2023-02-14T06:40:45.023Z,21.40
2023-02-14T06:43:14.172Z,20.73
2023-02-14T06:45:43.600Z,19.70
2023-02-14T06:48:11.413Z,19.70
2023-02-14T06:50:39.255Z,18.88
2023-02-14T06:53:07.343Z,17.97
2023-02-14T06:55:35.079Z,19.60
2023-02-14T06:58:03.120Z,18.73
2023-02-14T07:00:32.517Z,24.25
2023-02-14T07:03:00.455Z,17.58
2023-02-14T07:05:28.256Z,16.90
2023-02-14T07:07:56.123Z,16.45
2023-02-14T07:10:23.911Z,16.55
2023-02-14T07:12:51.937Z,16.17
2023-02-14T07:15:20.075Z,18.02
2023-02-14T07:17:49.297Z,17.90
2023-02-14T07:20:18.165Z,24.83
2023-02-14T07:22:46.328Z,18.70
2023-02-14T07:25:14.350Z,19.23
2023-02-14T07:27:42.220Z,20.20
2023-02-14T07:30:11.799Z,18.70
2023-02-14T07:32:40.079Z,18.33
2023-02-14T07:35:10.105Z,17.58
2023-02-14T07:37:38.018Z,21.67
2023-02-14T07:40:14.294Z,23.45
2023-02-14T07:42:43.046Z,21.60
2023-02-14T07:45:21.108Z,20.55
2023-02-14T07:47:49.962Z,20.50
2023-02-14T07:50:20.154Z,25.70
2023-02-14T07:52:48.005Z,20.10
2023-02-14T07:55:16.385Z,21.27
2023-02-14T07:57:44.335Z,24.75
2023-02-14T08:00:14.378Z,20.25
2023-02-14T08:02:42.597Z,16.35
2023-02-14T08:05:10.535Z,16.50
2023-02-14T08:07:39.731Z,19.00
2023-02-14T08:10:08.762Z,18.92
2023-02-14T08:12:54.307Z,19.50
2023-02-14T08:15:39.728Z,20.40
2023-02-14T08:18:07.695Z,30.40
2023-02-14T08:20:35.544Z,26.03
2023-02-14T08:23:04.861Z,24.63
2023-02-14T08:25:32.647Z,22.70
2023-02-14T08:28:02.762Z,28.73
2023-02-14T08:30:31.090Z,31.17
2023-02-14T08:32:59.114Z,27.23
2023-02-14T08:35:26.949Z,18.60
2023-02-14T08:37:54.812Z,24.20
2023-02-14T08:40:24.177Z,23.70
2023-02-14T08:42:52.215Z,36.10
2023-02-14T08:45:20.353Z,27.73
2023-02-14T08:47:48.134Z,22.77
2023-02-14T08:50:18.927Z,28.30
2023-02-14T08:52:46.896Z,25.83
2023-02-14T08:55:15.317Z,20.95
2023-02-14T08:57:44.510Z,22.60
2023-02-14T09:00:13.283Z,24.50
2023-02-14T09:02:41.148Z,24.90
2023-02-14T09:05:10.808Z,26.35
2023-02-14T09:07:38.754Z,27.88
2023-02-14T09:10:08.119Z,22.90
2023-02-14T09:12:35.967Z,24.48
2023-02-14T09:15:05.599Z,24.95
2023-02-14T09:17:34.266Z,28.73
2023-02-14T09:20:02.097Z,28.13
2023-02-14T09:22:29.971Z,26.40
2023-02-14T09:24:58.958Z,30.42
2023-02-14T09:27:27.057Z,32.42
2023-02-14T09:29:55.123Z,36.75
2023-02-14T09:32:26.381Z,41.85
2023-02-14T09:35:11.769Z,38.47
2023-02-14T09:37:57.009Z,42.97
2023-02-14T09:40:25.578Z,41.53
2023-02-14T09:43:02.059Z,41.83
2023-02-14T09:45:31.706Z,41.00
2023-02-14T09:48:03.911Z,43.90
2023-02-14T09:50:37.790Z,51.05
2023-02-14T09:53:13.480Z,51.78
2023-02-14T09:55:47.380Z,46.58
2023-02-14T09:58:21.545Z,50.28
2023-02-14T10:00:56.649Z,47.80
2023-02-14T10:03:41.822Z,52.38
2023-02-14T10:06:20.212Z,54.22
2023-02-14T10:08:59.108Z,51.95
2023-02-14T10:11:27.129Z,55.75
2023-02-14T10:13:59.330Z,61.33
2023-02-14T10:16:31.149Z,59.60
2023-02-14T10:19:03.274Z,65.75
2023-02-14T10:21:35.298Z,63.85
2023-02-14T10:24:11.865Z,58.83
2023-02-14T10:26:41.482Z,66.37
2023-02-14T10:29:15.413Z,63.00
2023-02-14T10:31:51.583Z,64.18
2023-02-14T10:34:27.002Z,66.85
2023-02-14T10:37:09.727Z,64.20
2023-02-14T10:39:52.992Z,62.50
2023-02-14T10:42:30.052Z,64.80
2023-02-14T10:45:06.198Z,65.45
2023-02-14T10:47:45.136Z,70.60
2023-02-14T10:50:20.901Z,67.30
2023-02-14T10:52:59.238Z,65.57
2023-02-14T10:55:34.515Z,66.35
2023-02-14T10:58:06.400Z,59.95
2023-02-14T11:00:36.854Z,68.55
2023-02-14T11:03:10.780Z,63.60
2023-02-14T11:05:46.559Z,65.53
2023-02-14T11:08:16.197Z,61.25
2023-02-14T11:10:44.249Z,60.58
2023-02-14T11:13:31.605Z,65.18
2023-02-14T11:16:04.948Z,67.05
2023-02-14T11:18:36.177Z,66.60
2023-02-14T11:21:09.682Z,66.78
2023-02-14T11:23:40.765Z,60.03
2023-02-14T11:26:12.728Z,61.72
2023-02-14T11:28:49.976Z,62.60
2023-02-14T11:31:26.477Z,59.20
2023-02-14T11:33:54.483Z,58.40
2023-02-14T11:36:24.620Z,59.40
2023-02-14T11:38:59.224Z,56.33
2023-02-14T11:41:27.095Z,55.10
2023-02-14T11:44:15.722Z,57.37
2023-02-14T11:46:52.785Z,53.40
2023-02-14T11:49:32.856Z,55.90
2023-02-14T11:52:10.597Z,50.35
2023-02-14T11:54:41.109Z,55.45
2023-02-14T11:57:12.424Z,56.27
2023-02-14T11:59:45.042Z,49.97
2023-02-14T12:02:25.122Z,52.30
2023-02-14T12:04:56.459Z,43.63
2023-02-14T12:07:28.464Z,54.13
2023-02-14T12:10:19.948Z,53.00
2023-02-14T12:12:54.096Z,49.17
2023-02-14T12:15:34.453Z,51.08
2023-02-14T12:18:18.761Z,51.60
2023-02-14T12:20:53.532Z,45.35
2023-02-14T12:23:27.046Z,47.97
2023-02-14T12:26:00.084Z,49.65
2023-02-14T12:28:32.037Z,48.70
2023-02-14T12:31:00.404Z,46.80
2023-02-14T12:33:28.507Z,48.85
2023-02-14T12:36:03.928Z,49.07
2023-02-14T12:38:42.592Z,55.15
2023-02-14T12:41:24.845Z,48.15
2023-02-14T12:43:55.370Z,49.97
2023-02-14T12:46:59.996Z,50.22
2023-02-14T12:49:40.861Z,46.30
2023-02-14T12:52:24.101Z,50.28
2023-02-14T12:55:09.103Z,46.85
2023-02-14T12:57:42.401Z,49.53
2023-02-14T13:00:24.297Z,50.15
2023-02-14T13:03:28.786Z,56.87
2023-02-14T13:06:03.028Z,52.88
2023-02-14T13:08:52.016Z,50.70
2023-02-14T13:11:34.839Z,47.30
2023-02-14T13:14:10.282Z,42.75
2023-02-14T13:16:45.275Z,48.23
2023-02-14T13:19:26.768Z,44.35
2023-02-14T13:21:55.507Z,49.05
2023-02-14T13:24:26.028Z,51.88
2023-02-14T13:26:59.407Z,47.50
2023-02-14T13:29:30.727Z,48.97
2023-02-14T13:32:02.195Z,48.42
2023-02-14T13:34:34.981Z,47.03
2023-02-14T13:37:07.437Z,48.80
2023-02-14T13:39:38.795Z,49.25
2023-02-14T13:42:08.884Z,45.50
2023-02-14T13:44:44.226Z,48.83
2023-02-14T13:47:19.319Z,51.80
2023-02-14T13:49:50.182Z,48.58
2023-02-14T13:52:42.936Z,50.55
2023-02-14T13:55:17.962Z,49.37
2023-02-14T13:57:47.562Z,53.20
2023-02-14T14:00:41.708Z,46.67
2023-02-14T14:03:15.280Z,46.35
2023-02-14T14:05:59.430Z,49.63
2023-02-14T14:08:44.961Z,47.40
2023-02-14T14:11:29.821Z,47.25
2023-02-14T14:14:02.549Z,45.55
2023-02-14T14:16:35.013Z,45.97
2023-02-14T14:19:05.669Z,47.22
2023-02-14T14:21:35.528Z,45.83
2023-02-14T14:24:18.540Z,46.22
2023-02-14T14:26:48.490Z,47.75
2023-02-14T14:29:31.291Z,45.08
2023-02-14T14:32:01.169Z,44.53
2023-02-14T14:34:29.620Z,42.33
2023-02-14T14:37:05.127Z,44.50
2023-02-14T14:39:35.132Z,38.60
2023-02-14T14:42:14.350Z,44.13
2023-02-14T14:44:48.288Z,40.88
2023-02-14T14:47:19.877Z,39.07
2023-02-14T14:49:48.717Z,39.17
2023-02-14T14:52:30.107Z,35.70
2023-02-14T14:54:59.707Z,37.60
2023-02-14T14:57:27.985Z,38.78
2023-02-14T15:00:20.540Z,37.37
2023-02-14T15:03:15.145Z,37.55
2023-02-14T15:05:45.230Z,33.60
2023-02-14T15:08:24.199Z,36.13
2023-02-14T15:10:55.659Z,36.22
2023-02-14T15:13:49.308Z,33.60
2023-02-14T15:16:25.642Z,38.30
2023-02-14T15:18:57.320Z,36.85
2023-02-14T15:21:25.603Z,35.55
2023-02-14T15:23:54.311Z,40.60
2023-02-14T15:26:28.008Z,38.47
2023-02-14T15:28:59.208Z,37.72
2023-02-14T15:31:31.556Z,37.17
2023-02-14T15:34:02.709Z,39.00
2023-02-14T15:36:32.227Z,39.83
2023-02-14T15:39:01.750Z,39.97
2023-02-14T15:41:29.834Z,38.97
2023-02-14T15:43:58.060Z,44.80
2023-02-14T15:46:35.615Z,41.13
2023-02-14T15:49:09.645Z,43.22
2023-02-14T15:51:39.041Z,41.80
2023-02-14T15:54:09.327Z,38.58
2023-02-14T15:56:42.552Z,41.70
2023-02-14T15:59:18.214Z,43.90
2023-02-14T16:01:52.841Z,42.85
2023-02-14T16:04:25.345Z,43.47
2023-02-14T16:07:07.281Z,48.72
2023-02-14T16:09:35.532Z,48.30
2023-02-14T16:12:30.437Z,44.50
2023-02-14T16:15:17.344Z,49.55
2023-02-14T16:17:47.059Z,41.83
2023-02-14T16:20:23.687Z,42.22
2023-02-14T16:22:51.742Z,51.65
2023-02-14T16:25:20.152Z,43.72
2023-02-14T16:27:48.073Z,51.28
2023-02-14T16:30:17.991Z,46.50
2023-02-14T16:32:53.569Z,51.60
2023-02-14T16:35:22.736Z,48.75
2023-02-14T16:37:51.956Z,47.85
2023-02-14T16:40:24.529Z,50.72
2023-02-14T16:42:52.325Z,52.57
2023-02-14T16:45:21.045Z,50.00
2023-02-14T16:47:50.613Z,48.92
2023-02-14T16:50:20.355Z,48.40
2023-02-14T16:52:52.414Z,47.80
2023-02-14T16:55:20.938Z,48.37
2023-02-14T16:57:51.564Z,52.53
2023-02-14T17:00:19.790Z,51.35
2023-02-14T17:02:47.647Z,52.72
2023-02-14T17:05:16.918Z,55.83
2023-02-14T17:07:45.104Z,58.07
2023-02-14T17:10:18.943Z,58.33
2023-02-14T17:12:49.324Z,60.60
2023-02-14T17:15:21.297Z,55.55
2023-02-14T17:17:50.264Z,54.13
2023-02-14T17:20:21.879Z,55.33
2023-02-14T17:22:49.786Z,57.40
2023-02-14T17:25:17.654Z,55.30
2023-02-14T17:27:46.317Z,56.03
2023-02-14T17:30:15.532Z,55.80
2023-02-14T17:32:43.839Z,51.77
2023-02-14T17:35:14.372Z,49.88
2023-02-14T17:37:44.493Z,50.53
2023-02-14T17:40:13.247Z,47.33
2023-02-14T17:42:41.265Z,51.20
2023-02-14T17:45:11.823Z,45.33
2023-02-14T17:47:41.007Z,47.80
2023-02-14T17:50:09.530Z,45.17
2023-02-14T17:52:37.835Z,46.83
2023-02-14T17:55:07.851Z,47.53
2023-02-14T17:57:35.661Z,45.40
2023-02-14T18:00:05.585Z,48.17
2023-02-14T18:02:47.693Z,49.05
2023-02-14T18:05:17.011Z,45.30
2023-02-14T18:07:48.029Z,48.65
2023-02-14T18:10:18.086Z,46.73
2023-02-14T18:12:45.895Z,46.92
2023-02-14T18:15:13.683Z,46.55
2023-02-14T18:17:41.501Z,48.38
2023-02-14T18:20:10.282Z,51.95
2023-02-14T18:22:38.041Z,51.47
2023-02-14T18:25:07.536Z,45.20
2023-02-14T18:27:36.918Z,53.20
2023-02-14T18:30:05.161Z,52.75
2023-02-14T18:32:33.005Z,48.45
2023-02-14T18:35:01.455Z,49.30
2023-02-14T18:37:29.216Z,55.47
2023-02-14T18:39:57.084Z,53.25
2023-02-14T18:42:24.816Z,58.25
2023-02-14T18:44:54.073Z,62.80
2023-02-14T18:47:22.026Z,56.80
2023-02-14T18:49:49.920Z,54.67
2023-02-14T18:52:17.720Z,52.47
2023-02-14T18:54:45.532Z,49.85
2023-02-14T18:57:13.709Z,52.60
2023-02-14T18:59:41.647Z,47.97
2023-02-14T19:02:11.251Z,47.33
2023-02-14T19:04:39.085Z,52.65
2023-02-14T19:07:06.978Z,46.85
2023-02-14T19:09:39.453Z,42.70
2023-02-14T19:12:07.665Z,54.40
2023-02-14T19:14:35.621Z,50.80
2023-02-14T19:17:04.597Z,44.55
2023-02-14T19:19:34.646Z,43.75
2023-02-14T19:22:02.825Z,52.35
2023-02-14T19:24:30.686Z,50.53
2023-02-14T19:26:58.534Z,48.55
2023-02-14T19:29:26.818Z,52.10
2023-02-14T19:31:55.769Z,47.95
2023-02-14T19:34:28.272Z,49.47
2023-02-14T19:37:00.377Z,52.87
2023-02-14T19:39:30.495Z,46.60
2023-02-14T19:41:58.974Z,49.58
2023-02-14T19:44:28.934Z,49.88
2023-02-14T19:46:59.893Z,52.38
2023-02-14T19:49:29.169Z,47.03
2023-02-14T19:51:59.654Z,52.30
2023-02-14T19:54:27.526Z,61.55
2023-02-14T19:56:56.350Z,64.50
2023-02-14T19:59:24.575Z,54.25
2023-02-14T20:01:53.686Z,60.20
2023-02-14T20:04:23.671Z,63.03
2023-02-14T20:06:51.867Z,66.93
2023-02-14T20:09:22.755Z,59.85
2023-02-14T20:11:51.993Z,61.20
2023-02-14T20:14:21.755Z,57.83
2023-02-14T20:16:50.134Z,57.83
2023-02-14T20:19:19.817Z,61.33
2023-02-14T20:21:49.413Z,63.72
2023-02-14T20:24:20.350Z,68.28
2023-02-14T20:26:50.099Z,65.90
2023-02-14T20:29:19.031Z,64.00
2023-02-14T20:31:49.377Z,68.15
2023-02-14T20:34:17.888Z,67.82
2023-02-14T20:36:49.538Z,70.55
2023-02-14T20:39:17.456Z,68.13
2023-02-14T20:41:49.677Z,61.65
2023-02-14T20:44:21.669Z,61.53
2023-02-14T20:46:50.357Z,52.17
2023-02-14T20:49:19.021Z,56.15
2023-02-14T20:51:49.537Z,49.17
2023-02-14T20:54:18.056Z,46.22
2023-02-14T20:56:46.000Z,47.72
2023-02-14T20:59:14.484Z,44.97
2023-02-14T21:01:43.668Z,42.47
2023-02-14T21:04:11.549Z,45.07
2023-02-14T21:06:40.130Z,46.65
2023-02-14T21:09:08.610Z,47.33
2023-02-14T21:11:36.692Z,45.33
2023-02-14T21:14:04.472Z,43.35
2023-02-14T21:16:32.272Z,43.33
2023-02-14T21:19:01.723Z,44.13
2023-02-14T21:21:32.661Z,42.60
2023-02-14T21:24:01.981Z,42.22
2023-02-14T21:26:30.277Z,48.85
2023-02-14T21:28:58.110Z,45.63
2023-02-14T21:31:26.147Z,45.63
2023-02-14T21:33:55.720Z,46.72
2023-02-14T21:36:26.702Z,48.83
2023-02-14T21:38:56.800Z,48.45
2023-02-14T21:41:25.905Z,52.93
2023-02-14T21:43:55.140Z,61.42
2023-02-14T21:46:27.279Z,57.95
2023-02-14T21:49:13.096Z,67.75
2023-02-14T21:51:42.510Z,72.72
2023-02-14T21:54:11.013Z,57.63
2023-02-14T21:56:41.252Z,65.00
2023-02-14T21:59:10.041Z,83.97
2023-02-14T22:01:39.654Z,69.35
2023-02-14T22:04:09.182Z,68.72
2023-02-14T22:06:38.729Z,51.00
2023-02-14T22:09:08.337Z,44.60
2023-02-14T22:11:36.270Z,39.67
2023-02-14T22:14:04.080Z,41.90
2023-02-14T22:16:32.130Z,42.60
2023-02-14T22:18:59.947Z,49.40
2023-02-14T22:21:28.475Z,51.83
2023-02-14T22:23:56.717Z,51.60
2023-02-14T22:26:27.332Z,40.22
2023-02-14T22:28:56.845Z,37.38
2023-02-14T22:31:26.609Z,39.37
2023-02-14T22:33:54.652Z,37.53
2023-02-14T22:36:22.893Z,36.67
2023-02-14T22:38:50.912Z,42.60
2023-02-14T22:41:20.852Z,37.70
2023-02-14T22:43:50.327Z,34.47
2023-02-14T22:46:20.366Z,32.05
2023-02-14T22:48:49.238Z,32.78
2023-02-14T22:51:22.399Z,31.90
2023-02-14T22:53:51.524Z,30.27
2023-02-14T22:56:20.895Z,28.73
2023-02-14T22:58:53.670Z,28.08
2023-02-14T23:01:23.400Z,27.35
2023-02-14T23:03:54.318Z,25.08
2023-02-14T23:06:22.978Z,27.17
2023-02-14T23:08:50.947Z,27.27
2023-02-14T23:11:21.094Z,30.63
2023-02-14T23:14:22.354Z,27.90
2023-02-14T23:17:08.078Z,27.83
2023-02-14T23:19:54.684Z,28.80
2023-02-14T23:22:25.071Z,30.07
2023-02-14T23:24:54.749Z,26.85
2023-02-14T23:27:24.746Z,25.58
2023-02-14T23:29:53.911Z,27.90
2023-02-14T23:32:21.657Z,28.52
2023-02-14T23:34:49.513Z,30.23
2023-02-14T23:37:17.312Z,35.53
2023-02-14T23:39:45.232Z,45.92
2023-02-14T23:42:14.839Z,30.95
2023-02-14T23:44:44.010Z,39.67
2023-02-14T23:47:14.417Z,31.37
2023-02-14T23:49:43.584Z,26.70
2023-02-14T23:52:13.168Z,41.60
2023-02-14T23:54:41.479Z,30.45
2023-02-14T23:57:09.562Z,46.13
2023-02-14T23:59:37.489Z,38.53
